Time;durP1;ratioP1;P1;durP2;ratioP2;P2;SDS_P1;SDS_P2;PMS_P1;PMS_P2;Temp;Humidity;BMP_temperature;BMP_pressure;BME280_temperature;BME280_humidity;BME280_pressure;Samples;Min_cycle;Max_cycle;Signal;HPM_P1;HPM_P2
2022/04/27 00:01:57;;;;;;;3.00;1.63;;;;;;;5.44;48.99;101238.28;5063195;28;20040;-70
2022/04/27 00:04:22;;;;;;;4.20;1.10;;;;;;;5.37;49.05;101236.38;5045232;28;20028;-69
2022/04/27 00:06:48;;;;;;;2.22;1.30;;;;;;;5.32;48.98;101240.50;5062998;28;20048;-69
2022/04/27 00:09:14;;;;;;;1.88;1.15;;;;;;;5.35;49.07;101245.78;5063576;28;20223;-71
2022/04/27 00:11:39;;;;;;;4.18;1.42;;;;;;;5.28;49.29;101239.59;5063121;28;20032;-69
2022/04/27 00:14:05;;;;;;;5.25;1.30;;;;;;;5.34;48.99;101246.59;5063083;28;20025;-69
2022/04/27 00:16:30;;;;;;;2.47;1.52;;;;;;;5.29;49.17;101248.16;5063335;28;20084;-69
2022/04/27 00:18:56;;;;;;;2.00;1.30;;;;;;;5.20;49.21;101241.06;5063130;28;20024;-70
2022/04/27 00:21:22;;;;;;;6.50;1.40;;;;;;;5.20;49.17;101244.53;5063515;28;20025;-70
2022/04/27 00:23:47;;;;;;;4.18;1.50;;;;;;;5.15;49.14;101247.78;5063382;28;20020;-70
2022/04/27 00:26:12;;;;;;;4.45;1.77;;;;;;;5.12;49.13;101251.16;5063298;28;20031;-70
2022/04/27 00:28:38;;;;;;;5.60;2.03;;;;;;;5.04;49.25;101237.19;5044835;28;20136;-70
2022/04/27 00:31:03;;;;;;;4.55;1.70;;;;;;;5.01;49.37;101238.00;5062577;28;20036;-69
2022/04/27 00:33:30;;;;;;;2.97;1.50;;;;;;;4.99;49.37;101243.91;5062815;28;20134;-69
2022/04/27 00:35:55;;;;;;;5.07;1.50;;;;;;;5.00;49.59;101248.25;5063033;28;20021;-69
2022/04/27 00:38:21;;;;;;;3.60;1.55;;;;;;;4.96;49.61;101247.28;5062795;28;20435;-70
2022/04/27 00:40:46;;;;;;;3.50;1.38;;;;;;;4.88;49.70;101239.34;5062920;28;20035;-70
2022/04/27 00:43:15;;;;;;;3.15;1.30;;;;;;;4.86;49.87;101238.41;5044687;28;20035;-71
2022/04/27 00:45:41;;;;;;;2.33;1.60;;;;;;;4.88;50.14;101244.50;5063067;28;20034;-70
2022/04/27 00:48:06;;;;;;;1.92;1.27;;;;;;;4.85;50.18;101252.13;5062695;28;20052;-69
2022/04/27 00:50:32;;;;;;;4.97;1.33;;;;;;;4.84;50.13;101255.50;5062936;28;20029;-69
2022/04/27 00:52:59;;;;;;;3.22;1.30;;;;;;;4.81;50.29;101248.59;5062743;28;20198;-69
2022/04/27 00:55:25;;;;;;;4.13;1.38;;;;;;;4.82;50.42;101252.03;5062787;28;20048;-67
2022/04/27 00:57:50;;;;;;;4.30;1.33;;;;;;;4.87;50.44;101259.88;5062502;28;20017;-69
2022/04/27 01:00:16;;;;;;;1.67;1.10;;;;;;;4.83;50.38;101251.19;5063080;28;20036;-69
2022/04/27 01:02:42;;;;;;;2.10;1.20;;;;;;;4.86;50.53;101261.56;5062951;28;20032;-69
2022/04/27 01:05:11;;;;;;;3.03;1.30;;;;;;;4.82;50.64;101258.03;5062722;28;20025;-69
2022/04/27 01:07:38;;;;;;;3.70;1.90;;;;;;;4.81;50.70;101250.28;5062210;28;20056;-69
2022/04/27 01:10:05;;;;;;;2.28;1.25;;;;;;;4.82;50.64;101265.75;5062724;28;20032;-69
2022/04/27 01:12:31;;;;;;;4.13;1.30;;;;;;;4.84;50.77;101265.78;5062729;28;20028;-70
2022/04/27 01:14:56;;;;;;;3.13;1.40;;;;;;;4.80;50.84;101269.13;5062515;28;20025;-70
2022/04/27 01:17:22;;;;;;;2.85;1.23;;;;;;;4.78;51.03;101270.75;5044596;28;20021;-69
2022/04/27 01:19:47;;;;;;;3.72;1.58;;;;;;;4.73;50.93;101272.34;5062688;28;20021;-69
2022/04/27 01:22:12;;;;;;;1.48;1.25;;;;;;;4.73;51.08;101280.91;5062610;28;20032;-69
2022/04/27 01:24:38;;;;;;;1.50;1.15;;;;;;;4.68;51.22;101278.22;5044530;28;20170;-69
2022/04/27 01:27:04;;;;;;;1.58;0.98;;;;;;;4.62;51.40;101280.59;5062561;28;20057;-70
2022/04/27 01:29:30;;;;;;;1.67;1.25;;;;;;;4.58;51.49;101279.63;5062449;28;20020;-69
2022/04/27 01:32:00;;;;;;;2.60;1.50;;;;;;;4.52;51.62;101288.88;5061816;28;20020;-69
2022/04/27 01:34:25;;;;;;;2.30;1.27;;;;;;;4.45;51.80;101280.97;5062041;28;20470;-69
2022/04/27 01:36:51;;;;;;;5.07;1.58;;;;;;;4.48;51.37;101295.63;5062259;28;20016;-70
2022/04/27 01:39:16;;;;;;;2.83;1.60;;;;;;;4.50;52.11;101299.13;5062092;28;20021;-69
2022/04/27 01:41:41;;;;;;;2.40;1.40;;;;;;;4.48;51.88;101295.63;5063546;28;20025;-69
2022/04/27 01:44:07;;;;;;;4.13;1.20;;;;;;;4.49;52.00;101309.34;5065747;28;20017;-69
2022/04/27 01:46:32;;;;;;;3.38;1.30;;;;;;;4.49;52.13;101307.63;5064860;28;20108;-69
2022/04/27 01:48:58;;;;;;;3.88;1.55;;;;;;;4.43;52.19;101299.72;5065550;28;20029;-70
2022/04/27 01:54:15;;;;;;;3.17;1.23;;;;;;;4.44;52.31;101310.06;5065789;28;20057;-69
2022/04/27 01:54:16;;;;;;;3.45;1.52;;;;;;;4.46;52.51;101317.81;5065733;28;20036;-69
2022/04/27 01:56:43;;;;;;;2.15;1.23;;;;;;;4.44;52.40;101317.78;5065578;28;20074;-69
2022/04/27 01:59:08;;;;;;;8.85;1.70;;;;;;;4.43;52.54;101321.19;5065019;28;20494;-69
2022/04/27 02:01:34;;;;;;;2.28;1.08;;;;;;;4.41;52.65;101312.53;5064094;28;20048;-70
2022/04/27 02:04:00;;;;;;;2.35;1.33;;;;;;;4.43;52.69;101320.31;5065636;28;20024;-70
2022/04/27 02:06:25;;;;;;;2.78;1.10;;;;;;;4.46;52.74;101321.28;5065753;28;20049;-70
2022/04/27 02:08:51;;;;;;;2.25;1.00;;;;;;;4.41;52.88;101322.81;5065739;28;20025;-71
2022/04/27 02:11:16;;;;;;;3.72;1.30;;;;;;;4.40;52.92;101326.22;5065264;28;20032;-70
2022/04/27 02:13:41;;;;;;;2.13;0.93;;;;;;;4.40;52.96;101326.22;5065020;28;20021;-70
2022/04/27 02:16:07;;;;;;;3.22;1.50;;;;;;;4.36;52.94;101324.38;5065500;28;20084;-69
2022/04/27 02:18:32;;;;;;;1.77;1.20;;;;;;;4.36;53.21;101332.09;5065152;28;20035;-69
2022/04/27 02:20:57;;;;;;;4.63;1.75;;;;;;;4.29;53.23;101322.44;5064839;28;20040;-69
2022/04/27 02:23:23;;;;;;;3.30;1.35;;;;;;;4.34;53.27;101333.75;5065169;28;20048;-71
2022/04/27 02:25:49;;;;;;;2.47;1.13;;;;;;;4.36;53.31;101334.66;5065141;28;20021;-69
2022/04/27 02:28:14;;;;;;;3.28;1.33;;;;;;;4.38;53.42;101327.88;5064218;28;20369;-70
2022/04/27 02:30:40;;;;;;;1.30;0.98;;;;;;;4.40;53.26;101331.38;5064609;28;20098;-70
2022/04/27 02:33:05;;;;;;;1.88;1.10;;;;;;;4.43;53.39;101339.19;5064137;28;20108;-70
2022/04/27 02:35:31;;;;;;;4.78;1.27;;;;;;;4.42;53.56;101340.03;5065117;28;20020;-70
2022/04/27 02:37:56;;;;;;;2.42;1.40;;;;;;;4.39;53.50;101339.03;5064877;28;20044;-70
2022/04/27 02:40:22;;;;;;;4.13;1.30;;;;;;;4.36;53.67;101336.38;5064861;28;20052;-70
2022/04/27 02:42:47;;;;;;;2.05;1.13;;;;;;;4.41;53.57;101338.25;5064887;28;20025;-70
2022/04/27 02:45:13;;;;;;;2.85;1.50;;;;;;;4.41;53.64;101343.41;5064576;28;20025;-69
2022/04/27 02:47:38;;;;;;;3.05;1.15;;;;;;;4.42;53.60;101339.13;5064674;28;20025;-70
2022/04/27 02:52:48;;;;;;;5.78;1.30;;;;;;;4.44;53.98;101332.34;5063628;28;20047;-69
2022/04/27 02:55:14;;;;;;;5.15;1.33;;;;;;;4.40;53.92;101325.34;5064703;28;20060;-70
2022/04/27 02:57:39;;;;;;;8.10;1.77;;;;;;;4.35;53.85;101325.19;5064661;28;20100;-70
2022/04/27 03:00:05;;;;;;;2.47;1.40;;;;;;;4.31;54.04;101328.50;5064527;28;20138;-70
2022/04/27 03:02:31;;;;;;;4.30;1.67;;;;;;;4.29;54.28;101328.47;5064303;28;20029;-71
2022/04/27 03:04:56;;;;;;;2.55;1.30;;;;;;;4.33;54.14;101330.28;5064384;28;20060;-70
2022/04/27 03:07:21;;;;;;;3.35;1.40;;;;;;;4.31;54.06;101333.66;5064196;28;20029;-71
2022/04/27 03:09:47;;;;;;;2.85;1.40;;;;;;;4.26;54.23;101333.50;5064576;28;20509;-70
2022/04/27 03:12:12;;;;;;;5.00;1.20;;;;;;;4.27;53.77;101334.34;5064342;28;20033;-71
2022/04/27 03:14:38;;;;;;;2.80;1.10;;;;;;;4.26;54.14;101338.66;5064163;28;20063;-70
2022/04/27 03:17:04;;;;;;;4.20;1.50;;;;;;;4.24;54.13;101331.69;5063996;28;20406;-70
2022/04/27 03:19:29;;;;;;;3.85;1.35;;;;;;;4.16;54.23;101327.19;5064314;28;20441;-70
2022/04/27 03:21:55;;;;;;;1.60;1.10;;;;;;;4.16;54.15;101337.47;5064104;28;20086;-69
2022/04/27 03:24:20;;;;;;;2.55;1.25;;;;;;;4.18;54.27;101334.94;5064307;28;20017;-70
2022/04/27 03:26:47;;;;;;;4.13;1.80;;;;;;;4.14;54.50;101328.81;5063742;28;20509;-70
2022/04/27 03:29:14;;;;;;;2.88;1.15;;;;;;;4.12;54.54;101338.16;5063109;28;20047;-69
2022/04/27 03:31:39;;;;;;;1.75;1.33;;;;;;;4.07;54.35;101338.00;5045070;28;20074;-69
2022/04/27 03:34:05;;;;;;;5.70;1.48;;;;;;;4.08;54.58;101333.75;5063698;28;20049;-70
2022/04/27 03:36:31;;;;;;;3.03;1.25;;;;;;;4.02;54.54;101333.56;5064002;28;20025;-70
2022/04/27 03:38:56;;;;;;;4.97;1.50;;;;;;;4.02;54.68;101338.69;5063971;28;20440;-69
2022/04/27 03:41:22;;;;;;;3.17;1.30;;;;;;;4.04;54.67;101349.91;5045933;28;20058;-70
2022/04/27 03:43:49;;;;;;;1.90;1.23;;;;;;;4.01;54.59;101339.53;5063532;28;20032;-69
2022/04/27 03:46:15;;;;;;;5.07;1.35;;;;;;;4.01;54.84;101347.25;5063605;28;20020;-69
2022/04/27 03:48:40;;;;;;;3.75;1.20;;;;;;;4.01;54.84;101350.66;5063600;28;20036;-69
2022/04/27 03:51:06;;;;;;;4.20;1.25;;;;;;;3.99;54.87;101342.03;5045856;28;20101;-69
2022/04/27 03:53:31;;;;;;;2.92;1.25;;;;;;;4.00;54.54;101340.31;5063753;28;20032;-70
2022/04/27 03:55:57;;;;;;;1.27;0.95;;;;;;;4.02;54.77;101352.44;5063952;28;20028;-70
2022/04/27 03:58:22;;;;;;;3.15;1.17;;;;;;;4.04;54.92;101352.47;5045240;28;20541;-70
2022/04/27 04:00:48;;;;;;;3.97;1.67;;;;;;;4.06;54.70;101361.09;5063434;28;20049;-70
2022/04/27 04:03:13;;;;;;;2.83;1.33;;;;;;;4.07;54.80;101355.16;5063619;28;20029;-70
2022/04/27 04:05:38;;;;;;;3.47;1.27;;;;;;;4.11;54.67;101358.69;5063303;28;20063;-69
2022/04/27 04:08:05;;;;;;;2.95;1.30;;;;;;;4.12;54.75;101357.88;5063215;28;20425;-68
2022/04/27 04:10:30;;;;;;;4.88;1.27;;;;;;;4.07;54.94;101356.00;5063753;28;20100;-69
2022/04/27 04:12:55;;;;;;;3.33;1.40;;;;;;;4.09;54.68;101356.06;5045063;28;20059;-68
2022/04/27 04:15:20;;;;;;;2.13;1.20;;;;;;;4.13;54.74;101367.31;5063237;28;20020;-68
2022/04/27 04:17:46;;;;;;;12.10;2.67;;;;;;;4.14;54.80;101363.94;5063269;28;20074;-69
2022/04/27 04:20:13;;;;;;;2.97;1.05;;;;;;;4.15;54.59;101366.56;5063121;28;20017;-67
2022/04/27 04:22:39;;;;;;;2.20;1.02;;;;;;;4.15;54.71;101366.56;5063358;28;20029;-69
2022/04/27 04:30:33;;;;;;;3.58;1.17;;;;;;;4.50;54.71;101370.25;5063350;28;20083;-69
2022/04/27 04:32:58;;;;;;;2.42;1.45;;;;;;;4.65;54.18;101368.16;5062910;28;20025;-66
2022/04/27 04:35:24;;;;;;;2.40;1.20;;;;;;;4.78;54.20;101373.69;5062987;28;20044;-70
2022/04/27 04:37:50;;;;;;;1.92;1.33;;;;;;;4.94;53.88;101377.59;5062921;28;20037;-70
2022/04/27 04:40:15;;;;;;;2.78;1.42;;;;;;;5.05;53.74;101378.81;5062992;28;20025;-69
2022/04/27 04:42:40;;;;;;;3.97;1.10;;;;;;;5.21;53.21;101374.09;5063178;28;20040;-69
2022/04/27 04:45:06;;;;;;;10.52;1.55;;;;;;;5.33;53.02;101381.34;5044797;28;20021;-69
2022/04/27 04:47:32;;;;;;;3.47;1.33;;;;;;;5.42;52.83;101384.16;5063037;28;20116;-70
2022/04/27 04:49:57;;;;;;;2.17;1.10;;;;;;;5.49;52.72;101386.91;5063189;28;20033;-70
2022/04/27 04:52:22;;;;;;;2.70;1.30;;;;;;;5.54;52.62;101388.78;5063093;28;20025;-70
2022/04/27 04:54:47;;;;;;;4.35;1.10;;;;;;;5.61;52.42;101391.56;5062757;28;20032;-70
2022/04/27 04:57:13;;;;;;;2.75;1.10;;;;;;;5.72;52.35;101397.00;5062841;28;20025;-70
2022/04/27 04:59:38;;;;;;;2.72;1.15;;;;;;;5.84;52.20;101397.34;5062686;28;20028;-71
2022/04/27 05:02:04;;;;;;;1.30;0.95;;;;;;;5.95;51.38;101393.34;5044702;28;20425;-69
2022/04/27 05:04:30;;;;;;;1.90;1.08;;;;;;;6.02;51.17;101398.66;5062892;28;20029;-70
2022/04/27 05:06:56;;;;;;;2.40;1.35;;;;;;;5.95;50.96;101385.63;5061395;28;20300;-69
2022/04/27 05:09:21;;;;;;;3.25;1.45;;;;;;;6.16;50.42;101402.50;5062556;28;20558;-70
2022/04/27 05:11:47;;;;;;;1.58;1.00;;;;;;;6.18;50.46;101405.97;5045068;28;20450;-70
2022/04/27 05:14:13;;;;;;;5.07;1.30;;;;;;;6.12;50.98;101408.41;5062915;28;20056;-70
2022/04/27 05:16:38;;;;;;;2.45;1.05;;;;;;;6.42;50.52;101412.59;5064409;28;20103;-70
2022/04/27 05:19:03;;;;;;;3.08;1.20;;;;;;;6.48;50.82;101413.59;5048737;28;20017;-70
2022/04/27 05:21:29;;;;;;;4.28;0.93;;;;;;;6.85;51.04;101414.50;5066742;28;20086;-71
2022/04/27 05:23:55;;;;;;;2.63;1.13;;;;;;;7.30;50.62;101414.63;5066692;28;20115;-70
2022/04/27 05:26:21;;;;;;;2.72;1.20;;;;;;;7.55;49.98;101409.94;5048465;28;20025;-71
2022/04/27 05:34:14;;;;;;;4.93;1.40;;;;;;;8.95;48.25;101406.34;5065963;28;20079;-72
2022/04/27 05:36:39;;;;;;;3.00;1.52;;;;;;;9.30;46.64;101400.78;5048555;28;20025;-70
2022/04/27 05:39:05;;;;;;;3.92;1.58;;;;;;;9.44;45.78;101417.34;5066365;28;20013;-69
2022/04/27 05:41:30;;;;;;;4.43;1.50;;;;;;;9.51;45.47;101422.63;5048592;28;20409;-71
2022/04/27 05:43:56;;;;;;;1.95;1.17;;;;;;;9.55;45.05;101423.56;5065901;28;20493;-71
2022/04/27 05:46:21;;;;;;;3.50;1.50;;;;;;;9.74;45.97;101426.34;5066341;28;20085;-71
2022/04/27 05:48:46;;;;;;;3.72;1.33;;;;;;;10.22;46.06;101413.00;5066244;28;20028;-71
2022/04/27 05:51:12;;;;;;;1.83;1.00;;;;;;;10.59;44.41;101415.09;5064880;28;20029;-71
2022/04/27 05:53:39;;;;;;;2.97;0.88;;;;;;;10.57;43.90;101403.81;5066146;28;20029;-71
2022/04/27 05:56:05;;;;;;;1.73;1.10;;;;;;;10.74;43.49;101401.31;5066110;28;20021;-70
2022/04/27 05:58:30;;;;;;;2.58;1.15;;;;;;;10.52;44.14;101412.44;5065848;28;20064;-71
2022/04/27 06:00:55;;;;;;;2.10;1.15;;;;;;;10.21;45.17;101404.34;5066037;28;20028;-71
2022/04/27 06:03:21;;;;;;;6.57;1.23;;;;;;;10.27;45.13;101414.78;5066014;28;20029;-70
2022/04/27 06:05:46;;;;;;;1.92;1.30;;;;;;;10.25;46.02;101415.63;5047965;28;20025;-70
2022/04/27 06:08:11;;;;;;;7.43;1.50;;;;;;;10.65;45.58;101426.38;5065542;28;20039;-70
2022/04/27 06:10:37;;;;;;;2.10;1.00;;;;;;;11.17;44.85;101416.31;5065703;28;20036;-70
2022/04/27 06:13:02;;;;;;;1.67;1.20;;;;;;;11.69;44.82;101420.03;5065441;28;20033;-70
2022/04/27 06:15:29;;;;;;;3.53;1.55;;;;;;;12.33;43.61;101420.16;5065675;28;20025;-70
2022/04/27 06:17:54;;;;;;;5.07;1.10;;;;;;;13.10;43.04;101426.16;5065448;28;20021;-70
2022/04/27 06:20:20;;;;;;;2.08;1.30;;;;;;;13.73;41.25;101423.34;5066048;28;20451;-70
2022/04/27 06:22:45;;;;;;;1.70;0.95;;;;;;;14.02;39.96;101440.59;5065430;28;20027;-70
2022/04/27 06:25:11;;;;;;;1.83;0.82;;;;;;;13.94;39.59;101439.75;5065391;28;20021;-70
2022/04/27 06:27:36;;;;;;;2.50;1.30;;;;;;;13.56;39.96;101445.16;5064030;28;20017;-69
2022/04/27 06:30:02;;;;;;;2.90;1.10;;;;;;;13.57;39.83;101440.81;5064576;28;20033;-69
2022/04/27 06:32:31;;;;;;;3.05;1.48;;;;;;;13.93;40.08;101451.94;5065000;28;20043;-69
2022/04/27 06:34:59;;;;;;;3.90;1.13;;;;;;;14.46;39.19;101446.38;5046942;28;20045;-69
2022/04/27 06:37:25;;;;;;;6.97;1.17;;;;;;;14.95;38.61;101444.22;5064875;28;20081;-72
2022/04/27 06:39:50;;;;;;;4.55;1.67;;;;;;;15.64;37.78;101432.97;5064861;28;20016;-71
2022/04/27 06:42:20;;;;;;;5.65;3.45;;;;;;;16.15;36.40;101435.78;5064640;28;20059;-70
2022/04/27 06:44:45;;;;;;;3.63;1.35;;;;;;;16.18;35.42;101433.13;5064654;28;20021;-70
2022/04/27 06:47:11;;;;;;;6.38;0.98;;;;;;;15.78;34.58;101424.94;5064703;28;20496;-71
2022/04/27 06:49:36;;;;;;;3.15;1.10;;;;;;;15.19;34.84;101428.28;5064535;28;20023;-71
2022/04/27 06:52:01;;;;;;;2.60;1.25;;;;;;;14.91;35.51;101421.59;5064555;28;20093;-70
2022/04/27 06:54:27;;;;;;;2.28;1.02;;;;;;;14.84;34.54;101443.47;5064411;28;20064;-70
2022/04/27 06:56:52;;;;;;;2.78;1.20;;;;;;;14.40;35.30;101450.75;5064238;28;20028;-71
2022/04/27 06:59:17;;;;;;;3.70;1.67;;;;;;;14.22;35.05;101463.06;5063947;28;20029;-70
2022/04/27 07:01:43;;;;;;;1.10;0.88;;;;;;;13.97;35.27;101458.03;5064371;28;20025;-71
2022/04/27 07:04:11;;;;;;;3.95;1.50;;;;;;;13.73;35.71;101457.28;5064228;28;20059;-71
2022/04/27 07:06:37;;;;;;;3.78;1.30;;;;;;;13.74;35.94;101469.44;5064382;28;20074;-70
2022/04/27 07:09:04;;;;;;;1.33;0.85;;;;;;;13.94;34.77;101473.69;5064076;28;20021;-71
2022/04/27 07:11:29;;;;;;;2.70;0.60;;;;;;;13.98;35.46;101471.06;5064400;28;20024;-70
2022/04/27 07:13:55;;;;;;;2.22;0.88;;;;;;;14.60;36.20;101469.75;5064074;28;20055;-70
2022/04/27 07:16:21;;;;;;;2.97;1.63;;;;;;;15.07;34.25;101479.84;5064086;28;20025;-71
2022/04/27 07:18:46;;;;;;;1.85;1.00;;;;;;;15.33;33.45;101475.22;5064058;28;20547;-70
2022/04/27 07:21:11;;;;;;;2.00;1.10;;;;;;;15.42;33.60;101482.09;5063898;28;20274;-71
2022/04/27 07:23:37;;;;;;;26.30;2.22;;;;;;;15.32;33.84;101478.72;5063846;28;20442;-70
2022/04/27 07:26:06;;;;;;;5.25;1.15;;;;;;;15.41;33.75;101489.09;5064029;28;20025;-70
2022/04/27 07:28:31;;;;;;;4.07;1.30;;;;;;;15.63;33.39;101467.88;5062686;28;20021;-70
2022/04/27 07:30:56;;;;;;;1.40;0.82;;;;;;;16.37;33.20;101491.34;5045186;28;20035;-70
2022/04/27 07:33:23;;;;;;;5.00;1.20;;;;;;;16.76;31.62;101488.09;5063551;28;20047;-70
2022/04/27 07:35:49;;;;;;;2.05;0.90;;;;;;;17.04;31.79;101492.88;5063900;28;20035;-70
2022/04/27 07:38:14;;;;;;;4.32;1.35;;;;;;;17.41;31.28;101491.31;5063468;28;20103;-70
2022/04/27 07:40:40;;;;;;;6.13;1.30;;;;;;;17.89;30.64;101492.09;5063506;28;20013;-70
2022/04/27 07:43:06;;;;;;;5.97;1.17;;;;;;;18.20;30.19;101496.69;5063655;28;20028;-69
2022/04/27 07:45:31;;;;;;;3.85;1.27;;;;;;;18.86;29.93;101500.38;5063520;28;20025;-69
2022/04/27 07:47:57;;;;;;;5.05;1.27;;;;;;;19.32;28.73;101493.03;5063286;28;20489;-69
2022/04/27 07:50:22;;;;;;;6.07;1.30;;;;;;;19.68;28.68;101496.44;5063343;28;20044;-69
2022/04/27 07:52:47;;;;;;;4.63;1.55;;;;;;;20.17;27.60;101494.13;5062571;28;20269;-69
2022/04/27 07:55:13;;;;;;;4.53;1.20;;;;;;;20.06;26.98;101488.31;5062761;28;20032;-69
2022/04/27 07:57:38;;;;;;;1.70;1.10;;;;;;;19.85;27.03;101485.38;5063209;28;20009;-69
2022/04/27 08:00:07;;;;;;;8.18;1.52;;;;;;;19.80;26.43;101485.53;5063138;28;20485;-68
2022/04/27 08:02:32;;;;;;;2.13;1.10;;;;;;;19.39;26.56;101493.72;5063133;28;20029;-69
2022/04/27 08:04:57;;;;;;;1.63;0.95;;;;;;;18.85;26.74;101496.00;5063161;28;20060;-69
2022/04/27 08:07:23;;;;;;;5.07;1.52;;;;;;;18.68;27.27;101499.06;5063142;28;20043;-71
2022/04/27 08:09:48;;;;;;;3.00;1.13;;;;;;;18.71;27.18;101496.38;5063201;28;20089;-69
2022/04/27 08:12:14;;;;;;;6.10;1.15;;;;;;;18.57;27.33;101497.59;5063124;28;20050;-69
2022/04/27 08:14:39;;;;;;;3.17;0.95;;;;;;;18.64;26.96;101502.69;5062760;28;20472;-69
2022/04/27 08:17:05;;;;;;;2.75;1.10;;;;;;;18.26;26.92;101494.84;5063102;28;20108;-69
2022/04/27 08:19:30;;;;;;;5.93;1.08;;;;;;;18.25;27.85;101499.22;5062921;28;20025;-69
2022/04/27 08:21:55;;;;;;;1.90;0.90;;;;;;;18.86;27.07;101504.78;5062928;28;20033;-70
2022/04/27 08:24:21;;;;;;;1.65;0.88;;;;;;;19.42;27.09;101503.31;5063050;28;20462;-70
2022/04/27 08:26:47;;;;;;;4.72;1.20;;;;;;;20.31;26.52;101498.94;5063021;28;20029;-69
2022/04/27 08:29:13;;;;;;;4.30;1.08;;;;;;;21.16;24.28;101502.31;5062603;28;20021;-70
2022/04/27 08:31:38;;;;;;;4.75;1.15;;;;;;;20.92;24.05;101504.03;5062835;28;20085;-69
2022/04/27 08:34:04;;;;;;;3.17;0.90;;;;;;;21.05;24.34;101501.81;5062414;28;20059;-69
2022/04/27 08:36:30;;;;;;;3.50;1.13;;;;;;;21.27;23.71;101504.56;5044647;28;20043;-68
2022/04/27 08:38:55;;;;;;;7.90;1.40;;;;;;;20.99;23.09;101499.41;5062751;28;20028;-68
2022/04/27 08:41:21;;;;;;;3.38;1.00;;;;;;;20.92;23.47;101499.63;5062791;28;20021;-69
2022/04/27 08:43:47;;;;;;;3.65;1.02;;;;;;;21.26;23.02;101513.38;5062702;28;20016;-70
2022/04/27 08:46:14;;;;;;;2.53;1.08;;;;;;;21.04;22.53;101506.22;5062602;28;20025;-69
2022/04/27 08:48:40;;;;;;;1.73;0.80;;;;;;;20.98;23.23;101506.44;5062436;28;20100;-69
2022/04/27 08:51:06;;;;;;;3.88;0.80;;;;;;;21.75;23.25;101515.13;5062903;28;20104;-68
2022/04/27 08:53:33;;;;;;;4.20;1.00;;;;;;;22.64;22.30;101510.81;5066956;28;20495;-68
2022/04/27 08:55:59;;;;;;;8.23;0.90;;;;;;;23.22;21.14;101508.38;5066574;28;20036;-69
2022/04/27 08:58:25;;;;;;;6.15;0.80;;;;;;;23.81;20.91;101507.50;5066310;28;20025;-68
2022/04/27 09:00:51;;;;;;;3.33;0.80;;;;;;;24.36;19.92;101509.31;5066576;28;20029;-69
2022/04/27 09:03:31;;;;;;;1.50;0.75;;;;;;;24.32;18.62;101512.19;5066684;28;20025;-69
2022/04/27 09:06:07;;;;;;;2.45;0.60;;;;;;;23.52;19.02;101502.63;5066554;28;20025;-69
2022/04/27 09:08:37;;;;;;;2.88;0.80;;;;;;;23.49;19.33;101505.44;5066366;28;20025;-69
2022/04/27 09:11:16;;;;;;;1.25;0.63;;;;;;;23.21;18.38;101511.94;5066742;28;20021;-70
2022/04/27 09:13:49;;;;;;;1.35;0.70;;;;;;;22.33;18.37;101512.94;5066418;28;20028;-70
2022/04/27 09:16:18;;;;;;;3.90;0.60;;;;;;;21.70;19.31;101513.56;5066379;28;20052;-69
2022/04/27 09:21:53;;;;;;;1.83;0.65;;;;;;;21.01;19.75;101508.97;5066447;28;20067;-70
2022/04/27 09:24:19;;;;;;;3.17;0.68;;;;;;;21.02;18.89;101507.22;5066177;28;20076;-70
2022/04/27 09:26:45;;;;;;;1.50;0.60;;;;;;;20.47;18.50;101516.91;5066113;28;20029;-70
2022/04/27 09:29:28;;;;;;;1.20;0.60;;;;;;;20.20;18.31;101506.31;5065793;28;20029;-69
2022/04/27 09:31:59;;;;;;;0.60;0.47;;;;;;;20.44;17.82;101503.81;5066047;28;20101;-68
2022/04/27 09:34:27;;;;;;;4.30;0.93;;;;;;;20.19;18.03;101502.81;5065878;28;20045;-68
2022/04/27 09:36:54;;;;;;;2.00;0.60;;;;;;;20.26;18.64;101506.13;5066002;28;20024;-70
2022/04/27 09:39:25;;;;;;;2.88;0.80;;;;;;;20.75;18.52;101505.41;5065799;28;20047;-69
2022/04/27 09:41:51;;;;;;;1.33;0.80;;;;;;;21.35;17.23;101496.34;5065820;28;20024;-69
2022/04/27 09:44:30;;;;;;;3.58;2.10;;;;;;;21.33;17.01;101502.59;5047649;28;20031;-69
2022/04/27 09:46:55;;;;;;;1.85;0.70;;;;;;;21.41;17.57;101505.81;5065927;28;20044;-69
2022/04/27 09:49:21;;;;;;;2.95;0.75;;;;;;;21.34;16.71;101509.59;5065634;28;20028;-70
2022/04/27 09:51:56;;;;;;;2.50;0.80;;;;;;;20.56;17.28;101511.31;5065591;28;20222;-69
2022/04/27 09:54:28;;;;;;;3.92;0.60;;;;;;;20.19;18.39;101508.09;5065671;28;20028;-69
2022/04/27 09:56:56;;;;;;;0.98;0.63;;;;;;;20.79;18.73;101504.41;5065772;28;20055;-70
2022/04/27 09:59:29;;;;;;;4.22;0.80;;;;;;;21.32;18.19;101501.75;5065345;28;20039;-69
2022/04/27 10:01:57;;;;;;;3.47;0.60;;;;;;;21.75;17.51;101501.03;5065403;28;20047;-69
2022/04/27 10:04:25;;;;;;;1.27;0.55;;;;;;;20.97;17.15;101501.22;5065605;28;20043;-69
2022/04/27 10:06:51;;;;;;;3.05;0.70;;;;;;;19.51;18.35;101500.41;5065550;28;20032;-70
2022/04/27 10:09:17;;;;;;;2.03;0.70;;;;;;;18.94;18.96;101508.94;5065338;28;20028;-69
2022/04/27 10:11:44;;;;;;;1.83;0.60;;;;;;;18.28;19.21;101504.41;5065273;28;20021;-70
2022/04/27 10:14:10;;;;;;;2.15;0.80;;;;;;;17.90;19.95;101501.72;5063765;28;20047;-70
2022/04/27 10:16:36;;;;;;;2.28;0.60;;;;;;;17.22;20.56;101506.56;5065339;28;20052;-70
2022/04/27 10:19:01;;;;;;;1.38;0.50;;;;;;;17.24;21.64;101509.19;5065360;28;20230;-70
2022/04/27 10:21:56;;;;;;;4.15;0.70;;;;;;;18.36;21.14;101508.59;5065374;28;20199;-69
2022/04/27 10:24:33;;;;;;;1.17;0.63;;;;;;;20.05;19.95;101499.75;5065589;28;20104;-70
2022/04/27 10:27:13;;;;;;;1.83;1.00;;;;;;;20.43;18.40;101510.00;5065076;28;20457;-70
2022/04/27 10:29:38;;;;;;;1.17;0.70;;;;;;;19.66;18.71;101499.13;5065032;28;20071;-70
2022/04/27 10:32:05;;;;;;;1.85;0.70;;;;;;;19.69;18.63;101506.94;5047054;28;20029;-69
2022/04/27 10:34:32;;;;;;;1.63;0.63;;;;;;;19.28;19.25;101501.91;5064694;28;20044;-69
2022/04/27 10:36:59;;;;;;;2.53;0.82;;;;;;;19.12;19.63;101498.84;5063776;28;20017;-70
2022/04/27 10:39:29;;;;;;;1.52;0.77;;;;;;;19.10;19.99;101500.66;5065139;28;20048;-71
2022/04/27 10:42:04;;;;;;;1.17;0.60;;;;;;;19.42;20.14;101498.91;5065019;28;20082;-70
2022/04/27 10:44:48;;;;;;;1.48;0.70;;;;;;;19.64;19.47;101502.69;5064764;28;20183;-71
2022/04/27 10:47:18;;;;;;;2.30;0.82;;;;;;;19.64;19.86;101492.16;5063845;28;20098;-70
2022/04/27 10:49:47;;;;;;;2.20;0.80;;;;;;;20.22;19.57;101490.47;5063601;28;20029;-71
2022/04/27 10:52:13;;;;;;;1.65;0.90;;;;;;;20.75;18.85;101492.22;5064004;28;20025;-70
2022/04/27 10:54:40;;;;;;;2.88;0.80;;;;;;;21.04;18.25;101492.16;5046315;28;20385;-69
2022/04/27 10:57:14;;;;;;;2.60;0.80;;;;;;;21.24;18.21;101494.09;5064412;28;20029;-70
2022/04/27 10:59:47;;;;;;;3.38;0.88;;;;;;;21.05;17.91;101494.75;5063553;28;20028;-71
2022/04/27 11:02:43;;;;;;;1.27;0.90;;;;;;;20.90;17.80;101492.63;5064333;28;20535;-69
2022/04/27 11:05:11;;;;;;;1.65;1.02;;;;;;;20.53;18.35;101487.69;5036783;28;20033;-71
2022/04/27 11:07:58;;;;;;;1.33;0.50;;;;;;;20.12;18.64;101484.59;5064328;28;20651;-69
2022/04/27 11:10:24;;;;;;;1.55;0.70;;;;;;;20.67;17.60;101495.13;5046271;28;20112;-69
2022/04/27 11:12:55;;;;;;;2.10;0.88;;;;;;;20.09;17.53;101495.25;5064189;28;20039;-70
2022/04/27 11:15:23;;;;;;;1.95;0.50;;;;;;;19.13;18.38;101499.72;5063347;28;20040;-70
2022/04/27 11:18:02;;;;;;;0.85;0.60;;;;;;;19.26;19.16;101487.09;5064376;28;20345;-70
2022/04/27 11:20:27;;;;;;;1.55;1.00;;;;;;;19.26;18.55;101501.13;5064161;28;20028;-70
2022/04/27 11:22:53;;;;;;;0.93;0.60;;;;;;;18.27;19.36;101502.69;5064046;28;20021;-70
2022/04/27 11:25:28;;;;;;;9.05;5.90;;;;;;;17.46;20.12;101501.72;5063841;28;20495;-70
2022/04/27 11:27:54;;;;;;;1.73;0.90;;;;;;;16.60;20.72;101492.72;5063363;28;20036;-70
2022/04/27 11:30:21;;;;;;;3.50;0.98;;;;;;;16.17;21.51;101495.13;5062641;28;20381;-70
2022/04/27 11:32:50;;;;;;;1.20;0.70;;;;;;;15.81;21.88;101495.59;5063478;28;20075;-69
2022/04/27 11:35:16;;;;;;;1.42;0.80;;;;;;;15.46;22.70;101492.50;5063712;28;20465;-69
2022/04/27 11:37:42;;;;;;;3.30;1.00;;;;;;;15.07;23.38;101490.31;5063860;28;20047;-69
2022/04/27 11:40:26;;;;;;;3.70;1.20;;;;;;;14.84;23.78;101495.75;5063648;28;20025;-70
2022/04/27 11:42:52;;;;;;;3.33;1.10;;;;;;;14.65;24.12;101502.84;5063741;28;20048;-70
2022/04/27 11:45:22;;;;;;;4.28;1.77;;;;;;;14.45;24.53;101503.84;5063360;28;20028;-70